<?xml version="1.0" encoding="UTF-8" standalone="no" ?>
<gpx xmlns="http://www.topografix.com/GPX/1/1" xmlns:xsi="http://www.w3.org/2001/XMLSchema-instance" xsi:schemaLocation="http://www.topografix.com/GPX/1/1 http://www.topografix.com/GPX/1/1/gpx.xsd" version="1.1" creator="VisuGPX - https://www.visugpx.com">
  <metadata>
    <name>sortie de 02 07 2021</name>
  </metadata>
  <trk>
    <name><![CDATA[ACTIVE LOG091521]]></name>
    <trkseg>
      <trkpt lat="45.7675" lon="3.11513">
        <ele>383.702</ele>
        <time>2021-07-02T07:15:21Z</time>
      </trkpt>
      <trkpt lat="45.76741" lon="3.11513">
        <ele>384.988</ele>
        <time>2021-07-02T07:15:41Z</time>
      </trkpt>
    </trkseg>
  </trk>
  <trk>
    <name><![CDATA[ACTIVE LOG091547]]></name>
    <trkseg>
      <trkpt lat="45.76741" lon="3.11514">
        <ele>385.783</ele>
        <time>2021-07-02T07:15:46Z</time>
      </trkpt>
      <trkpt lat="45.76743" lon="3.11516">
        <ele>385.955</ele>
        <time>2021-07-02T07:16:06Z</time>
      </trkpt>
      <trkpt lat="45.76731" lon="3.11562">
        <ele>388.896</ele>
        <time>2021-07-02T07:16:26Z</time>
      </trkpt>
      <trkpt lat="45.76718" lon="3.1151">
        <ele>384.363</ele>
        <time>2021-07-02T07:16:46Z</time>
      </trkpt>
      <trkpt lat="45.76717" lon="3.11411">
        <ele>377.969</ele>
        <time>2021-07-02T07:17:06Z</time>
      </trkpt>
      <trkpt lat="45.7672" lon="3.11274">
        <ele>369.885</ele>
        <time>2021-07-02T07:17:26Z</time>
      </trkpt>
      <trkpt lat="45.76693" lon="3.11156">
        <ele>371.006</ele>
        <time>2021-07-02T07:17:46Z</time>
      </trkpt>
      <trkpt lat="45.76675" lon="3.11072">
        <ele>372.028</ele>
        <time>2021-07-02T07:18:06Z</time>
      </trkpt>
      <trkpt lat="45.76727" lon="3.11013">
        <ele>369.61</ele>
        <time>2021-07-02T07:18:26Z</time>
      </trkpt>
      <trkpt lat="45.76678" lon="3.10903">
        <ele>373.907</ele>
        <time>2021-07-02T07:18:46Z</time>
      </trkpt>
      <trkpt lat="45.76638" lon="3.10815">
        <ele>374.574</ele>
        <time>2021-07-02T07:19:06Z</time>
      </trkpt>
      <trkpt lat="45.76648" lon="3.10754">
        <ele>381.787</ele>
        <time>2021-07-02T07:19:26Z</time>
      </trkpt>
      <trkpt lat="45.76653" lon="3.10657">
        <ele>382.011</ele>
        <time>2021-07-02T07:19:46Z</time>
      </trkpt>
      <trkpt lat="45.76608" lon="3.10552">
        <ele>384.151</ele>
        <time>2021-07-02T07:20:06Z</time>
      </trkpt>
      <trkpt lat="45.76572" lon="3.10481">
        <ele>383.766</ele>
        <time>2021-07-02T07:20:26Z</time>
      </trkpt>
      <trkpt lat="45.76562" lon="3.10459">
        <ele>386.224</ele>
        <time>2021-07-02T07:20:46Z</time>
      </trkpt>
      <trkpt lat="45.76522" lon="3.10369">
        <ele>390.869</ele>
        <time>2021-07-02T07:21:06Z</time>
      </trkpt>
      <trkpt lat="45.76473" lon="3.10265">
        <ele>390.44</ele>
        <time>2021-07-02T07:21:26Z</time>
      </trkpt>
      <trkpt lat="45.76416" lon="3.10142">
        <ele>389.233</ele>
        <time>2021-07-02T07:21:46Z</time>
      </trkpt>
      <trkpt lat="45.76372" lon="3.10047">
        <ele>390.037</ele>
        <time>2021-07-02T07:22:06Z</time>
      </trkpt>
      <trkpt lat="45.76348" lon="3.09993">
        <ele>392.464</ele>
        <time>2021-07-02T07:22:26Z</time>
      </trkpt>
      <trkpt lat="45.76328" lon="3.09948">
        <ele>394.451</ele>
        <time>2021-07-02T07:22:46Z</time>
      </trkpt>
      <trkpt lat="45.76328" lon="3.09948">
        <ele>394.183</ele>
        <time>2021-07-02T07:23:06Z</time>
      </trkpt>
      <trkpt lat="45.76328" lon="3.09948">
        <ele>394.054</ele>
        <time>2021-07-02T07:23:26Z</time>
      </trkpt>
      <trkpt lat="45.76326" lon="3.09943">
        <ele>394.134</ele>
        <time>2021-07-02T07:23:46Z</time>
      </trkpt>
      <trkpt lat="45.76285" lon="3.09845">
        <ele>397.891</ele>
        <time>2021-07-02T07:24:06Z</time>
      </trkpt>
      <trkpt lat="45.76244" lon="3.09746">
        <ele>399.119</ele>
        <time>2021-07-02T07:24:26Z</time>
      </trkpt>
      <trkpt lat="45.76214" lon="3.09673">
        <ele>401.182</ele>
        <time>2021-07-02T07:24:46Z</time>
      </trkpt>
      <trkpt lat="45.76196" lon="3.09634">
        <ele>403.909</ele>
        <time>2021-07-02T07:25:06Z</time>
      </trkpt>
      <trkpt lat="45.76164" lon="3.09561">
        <ele>407.51</ele>
        <time>2021-07-02T07:25:26Z</time>
      </trkpt>
      <trkpt lat="45.76129" lon="3.09476">
        <ele>410.266</ele>
        <time>2021-07-02T07:25:46Z</time>
      </trkpt>
      <trkpt lat="45.76097" lon="3.09382">
        <ele>410.734</ele>
        <time>2021-07-02T07:26:06Z</time>
      </trkpt>
      <trkpt lat="45.76099" lon="3.09252">
        <ele>410.667</ele>
        <time>2021-07-02T07:26:27Z</time>
      </trkpt>
      <trkpt lat="45.76105" lon="3.09135">
        <ele>408.832</ele>
        <time>2021-07-02T07:26:47Z</time>
      </trkpt>
      <trkpt lat="45.761" lon="3.09021">
        <ele>408.24</ele>
        <time>2021-07-02T07:27:07Z</time>
      </trkpt>
      <trkpt lat="45.76102" lon="3.09012">
        <ele>408.56</ele>
        <time>2021-07-02T07:27:27Z</time>
      </trkpt>
      <trkpt lat="45.76052" lon="3.08859">
        <ele>411.749</ele>
        <time>2021-07-02T07:27:47Z</time>
      </trkpt>
      <trkpt lat="45.75995" lon="3.0878">
        <ele>414.541</ele>
        <time>2021-07-02T07:28:07Z</time>
      </trkpt>
      <trkpt lat="45.75925" lon="3.08742">
        <ele>418.317</ele>
        <time>2021-07-02T07:28:27Z</time>
      </trkpt>
      <trkpt lat="45.75855" lon="3.08692">
        <ele>417.861</ele>
        <time>2021-07-02T07:28:47Z</time>
      </trkpt>
      <trkpt lat="45.75796" lon="3.08619">
        <ele>418.336</ele>
        <time>2021-07-02T07:29:07Z</time>
      </trkpt>
      <trkpt lat="45.75735" lon="3.08559">
        <ele>421.586</ele>
        <time>2021-07-02T07:29:27Z</time>
      </trkpt>
      <trkpt lat="45.75667" lon="3.0851">
        <ele>423.061</ele>
        <time>2021-07-02T07:29:47Z</time>
      </trkpt>
      <trkpt lat="45.75607" lon="3.08468">
        <ele>426.763</ele>
        <time>2021-07-02T07:30:07Z</time>
      </trkpt>
      <trkpt lat="45.75593" lon="3.08459">
        <ele>430.198</ele>
        <time>2021-07-02T07:30:27Z</time>
      </trkpt>
      <trkpt lat="45.75532" lon="3.08476">
        <ele>437.543</ele>
        <time>2021-07-02T07:30:47Z</time>
      </trkpt>
      <trkpt lat="45.75465" lon="3.08503">
        <ele>440.924</ele>
        <time>2021-07-02T07:31:07Z</time>
      </trkpt>
      <trkpt lat="45.75402" lon="3.08525">
        <ele>443.527</ele>
        <time>2021-07-02T07:31:27Z</time>
      </trkpt>
      <trkpt lat="45.75387" lon="3.08529">
        <ele>444.218</ele>
        <time>2021-07-02T07:31:47Z</time>
      </trkpt>
      <trkpt lat="45.75381" lon="3.08531">
        <ele>443.741</ele>
        <time>2021-07-02T07:32:07Z</time>
      </trkpt>
      <trkpt lat="45.75315" lon="3.08463">
        <ele>441.468</ele>
        <time>2021-07-02T07:32:27Z</time>
      </trkpt>
      <trkpt lat="45.7528" lon="3.08366">
        <ele>437.871</ele>
        <time>2021-07-02T07:32:47Z</time>
      </trkpt>
      <trkpt lat="45.75261" lon="3.08312">
        <ele>440.747</ele>
        <time>2021-07-02T07:33:07Z</time>
      </trkpt>
      <trkpt lat="45.75244" lon="3.08278">
        <ele>442.982</ele>
        <time>2021-07-02T07:33:27Z</time>
      </trkpt>
      <trkpt lat="45.75205" lon="3.08168">
        <ele>443.826</ele>
        <time>2021-07-02T07:33:47Z</time>
      </trkpt>
      <trkpt lat="45.75172" lon="3.08073">
        <ele>447.575</ele>
        <time>2021-07-02T07:34:07Z</time>
      </trkpt>
      <trkpt lat="45.75126" lon="3.08005">
        <ele>450.543</ele>
        <time>2021-07-02T07:34:27Z</time>
      </trkpt>
      <trkpt lat="45.75065" lon="3.0797">
        <ele>454.301</ele>
        <time>2021-07-02T07:34:47Z</time>
      </trkpt>
      <trkpt lat="45.75009" lon="3.07939">
        <ele>456.483</ele>
        <time>2021-07-02T07:35:07Z</time>
      </trkpt>
      <trkpt lat="45.74948" lon="3.07904">
        <ele>458.37</ele>
        <time>2021-07-02T07:35:27Z</time>
      </trkpt>
      <trkpt lat="45.74886" lon="3.07868">
        <ele>462.536</ele>
        <time>2021-07-02T07:35:47Z</time>
      </trkpt>
      <trkpt lat="45.7484" lon="3.07797">
        <ele>463.415</ele>
        <time>2021-07-02T07:36:07Z</time>
      </trkpt>
      <trkpt lat="45.74825" lon="3.07714">
        <ele>465.645</ele>
        <time>2021-07-02T07:36:27Z</time>
      </trkpt>
      <trkpt lat="45.74809" lon="3.07627">
        <ele>467.029</ele>
        <time>2021-07-02T07:36:47Z</time>
      </trkpt>
      <trkpt lat="45.74795" lon="3.07541">
        <ele>468.395</ele>
        <time>2021-07-02T07:37:07Z</time>
      </trkpt>
      <trkpt lat="45.74783" lon="3.07457">
        <ele>470.975</ele>
        <time>2021-07-02T07:37:27Z</time>
      </trkpt>
      <trkpt lat="45.74768" lon="3.0737">
        <ele>475.716</ele>
        <time>2021-07-02T07:37:47Z</time>
      </trkpt>
      <trkpt lat="45.74753" lon="3.07283">
        <ele>478.303</ele>
        <time>2021-07-02T07:38:07Z</time>
      </trkpt>
      <trkpt lat="45.74741" lon="3.07199">
        <ele>479.818</ele>
        <time>2021-07-02T07:38:27Z</time>
      </trkpt>
      <trkpt lat="45.7474" lon="3.07115">
        <ele>481.733</ele>
        <time>2021-07-02T07:38:47Z</time>
      </trkpt>
      <trkpt lat="45.74738" lon="3.07092">
        <ele>483.22</ele>
        <time>2021-07-02T07:39:07Z</time>
      </trkpt>
      <trkpt lat="45.74737" lon="3.07079">
        <ele>483.417</ele>
        <time>2021-07-02T07:39:27Z</time>
      </trkpt>
      <trkpt lat="45.74692" lon="3.07026">
        <ele>487.836</ele>
        <time>2021-07-02T07:39:47Z</time>
      </trkpt>
      <trkpt lat="45.74631" lon="3.06998">
        <ele>492.309</ele>
        <time>2021-07-02T07:40:07Z</time>
      </trkpt>
      <trkpt lat="45.7457" lon="3.06991">
        <ele>494.942</ele>
        <time>2021-07-02T07:40:27Z</time>
      </trkpt>
      <trkpt lat="45.74508" lon="3.06995">
        <ele>496.551</ele>
        <time>2021-07-02T07:40:47Z</time>
      </trkpt>
      <trkpt lat="45.74444" lon="3.07006">
        <ele>496.194</ele>
        <time>2021-07-02T07:41:07Z</time>
      </trkpt>
      <trkpt lat="45.74382" lon="3.07016">
        <ele>500.896</ele>
        <time>2021-07-02T07:41:27Z</time>
      </trkpt>
      <trkpt lat="45.7432" lon="3.07027">
        <ele>503.29</ele>
        <time>2021-07-02T07:41:47Z</time>
      </trkpt>
      <trkpt lat="45.74257" lon="3.07034">
        <ele>505.315</ele>
        <time>2021-07-02T07:42:07Z</time>
      </trkpt>
      <trkpt lat="45.74194" lon="3.0702">
        <ele>504.179</ele>
        <time>2021-07-02T07:42:27Z</time>
      </trkpt>
      <trkpt lat="45.74135" lon="3.07005">
        <ele>503.493</ele>
        <time>2021-07-02T07:42:47Z</time>
      </trkpt>
      <trkpt lat="45.74076" lon="3.06982">
        <ele>509.218</ele>
        <time>2021-07-02T07:43:07Z</time>
      </trkpt>
      <trkpt lat="45.74024" lon="3.06962">
        <ele>513.145</ele>
        <time>2021-07-02T07:43:27Z</time>
      </trkpt>
      <trkpt lat="45.74008" lon="3.06956">
        <ele>518.523</ele>
        <time>2021-07-02T07:43:47Z</time>
      </trkpt>
      <trkpt lat="45.73911" lon="3.06914">
        <ele>522.073</ele>
        <time>2021-07-02T07:44:07Z</time>
      </trkpt>
      <trkpt lat="45.73855" lon="3.06879">
        <ele>521.686</ele>
        <time>2021-07-02T07:44:27Z</time>
      </trkpt>
      <trkpt lat="45.73805" lon="3.06832">
        <ele>523.813</ele>
        <time>2021-07-02T07:44:47Z</time>
      </trkpt>
      <trkpt lat="45.73757" lon="3.06786">
        <ele>521.871</ele>
        <time>2021-07-02T07:45:07Z</time>
      </trkpt>
      <trkpt lat="45.7371" lon="3.06737">
        <ele>523.699</ele>
        <time>2021-07-02T07:45:27Z</time>
      </trkpt>
      <trkpt lat="45.73669" lon="3.06673">
        <ele>523.147</ele>
        <time>2021-07-02T07:45:47Z</time>
      </trkpt>
      <trkpt lat="45.73643" lon="3.06596">
        <ele>524.297</ele>
        <time>2021-07-02T07:46:07Z</time>
      </trkpt>
      <trkpt lat="45.7362" lon="3.06526">
        <ele>526.146</ele>
        <time>2021-07-02T07:46:27Z</time>
      </trkpt>
      <trkpt lat="45.73604" lon="3.06493">
        <ele>532.036</ele>
        <time>2021-07-02T07:46:47Z</time>
      </trkpt>
      <trkpt lat="45.73541" lon="3.06445">
        <ele>537.645</ele>
        <time>2021-07-02T07:47:07Z</time>
      </trkpt>
      <trkpt lat="45.73488" lon="3.06426">
        <ele>542.055</ele>
        <time>2021-07-02T07:47:27Z</time>
      </trkpt>
      <trkpt lat="45.73436" lon="3.06414">
        <ele>541.413</ele>
        <time>2021-07-02T07:47:47Z</time>
      </trkpt>
      <trkpt lat="45.73404" lon="3.06408">
        <ele>547.245</ele>
        <time>2021-07-02T07:48:07Z</time>
      </trkpt>
      <trkpt lat="45.73388" lon="3.06406">
        <ele>550.83</ele>
        <time>2021-07-02T07:48:27Z</time>
      </trkpt>
      <trkpt lat="45.73332" lon="3.06393">
        <ele>550.588</ele>
        <time>2021-07-02T07:48:47Z</time>
      </trkpt>
      <trkpt lat="45.73272" lon="3.06377">
        <ele>552.683</ele>
        <time>2021-07-02T07:49:07Z</time>
      </trkpt>
      <trkpt lat="45.73215" lon="3.06364">
        <ele>557.264</ele>
        <time>2021-07-02T07:49:27Z</time>
      </trkpt>
      <trkpt lat="45.73157" lon="3.06364">
        <ele>563.825</ele>
        <time>2021-07-02T07:49:47Z</time>
      </trkpt>
      <trkpt lat="45.73097" lon="3.06389">
        <ele>575.782</ele>
        <time>2021-07-02T07:50:07Z</time>
      </trkpt>
      <trkpt lat="45.7304" lon="3.06414">
        <ele>585.256</ele>
        <time>2021-07-02T07:50:27Z</time>
      </trkpt>
      <trkpt lat="45.7299" lon="3.06435">
        <ele>586.339</ele>
        <time>2021-07-02T07:50:47Z</time>
      </trkpt>
      <trkpt lat="45.72922" lon="3.06441">
        <ele>587.383</ele>
        <time>2021-07-02T07:51:07Z</time>
      </trkpt>
      <trkpt lat="45.72848" lon="3.06421">
        <ele>584.965</ele>
        <time>2021-07-02T07:51:27Z</time>
      </trkpt>
      <trkpt lat="45.72777" lon="3.06392">
        <ele>582.587</ele>
        <time>2021-07-02T07:51:47Z</time>
      </trkpt>
      <trkpt lat="45.72703" lon="3.06361">
        <ele>578.148</ele>
        <time>2021-07-02T07:52:07Z</time>
      </trkpt>
      <trkpt lat="45.72631" lon="3.06347">
        <ele>576.379</ele>
        <time>2021-07-02T07:52:27Z</time>
      </trkpt>
      <trkpt lat="45.72561" lon="3.06356">
        <ele>576.072</ele>
        <time>2021-07-02T07:52:47Z</time>
      </trkpt>
      <trkpt lat="45.72488" lon="3.06373">
        <ele>575.926</ele>
        <time>2021-07-02T07:53:07Z</time>
      </trkpt>
      <trkpt lat="45.72457" lon="3.06455">
        <ele>580.448</ele>
        <time>2021-07-02T07:53:27Z</time>
      </trkpt>
      <trkpt lat="45.72448" lon="3.06552">
        <ele>580.739</ele>
        <time>2021-07-02T07:53:47Z</time>
      </trkpt>
      <trkpt lat="45.72436" lon="3.06653">
        <ele>587.971</ele>
        <time>2021-07-02T07:54:07Z</time>
      </trkpt>
      <trkpt lat="45.72391" lon="3.06709">
        <ele>590.582</ele>
        <time>2021-07-02T07:54:27Z</time>
      </trkpt>
      <trkpt lat="45.72335" lon="3.06725">
        <ele>594.474</ele>
        <time>2021-07-02T07:54:47Z</time>
      </trkpt>
      <trkpt lat="45.72279" lon="3.0674">
        <ele>598.153</ele>
        <time>2021-07-02T07:55:07Z</time>
      </trkpt>
      <trkpt lat="45.72226" lon="3.06759">
        <ele>600.846</ele>
        <time>2021-07-02T07:55:27Z</time>
      </trkpt>
      <trkpt lat="45.72179" lon="3.06776">
        <ele>603.175</ele>
        <time>2021-07-02T07:55:47Z</time>
      </trkpt>
      <trkpt lat="45.72122" lon="3.06799">
        <ele>606.134</ele>
        <time>2021-07-02T07:56:07Z</time>
      </trkpt>
      <trkpt lat="45.72073" lon="3.06803">
        <ele>609.349</ele>
        <time>2021-07-02T07:56:27Z</time>
      </trkpt>
      <trkpt lat="45.72023" lon="3.06787">
        <ele>609.356</ele>
        <time>2021-07-02T07:56:47Z</time>
      </trkpt>
      <trkpt lat="45.71969" lon="3.06789">
        <ele>607.726</ele>
        <time>2021-07-02T07:57:07Z</time>
      </trkpt>
      <trkpt lat="45.71924" lon="3.06761">
        <ele>606.97</ele>
        <time>2021-07-02T07:57:27Z</time>
      </trkpt>
      <trkpt lat="45.71872" lon="3.06805">
        <ele>608.397</ele>
        <time>2021-07-02T07:57:47Z</time>
      </trkpt>
      <trkpt lat="45.71831" lon="3.06841">
        <ele>613.58</ele>
        <time>2021-07-02T07:58:07Z</time>
      </trkpt>
      <trkpt lat="45.71805" lon="3.06913">
        <ele>617.99</ele>
        <time>2021-07-02T07:58:27Z</time>
      </trkpt>
      <trkpt lat="45.71772" lon="3.06966">
        <ele>620.789</ele>
        <time>2021-07-02T07:58:47Z</time>
      </trkpt>
      <trkpt lat="45.7172" lon="3.06958">
        <ele>622.317</ele>
        <time>2021-07-02T07:59:07Z</time>
      </trkpt>
      <trkpt lat="45.7167" lon="3.0696">
        <ele>626.074</ele>
        <time>2021-07-02T07:59:27Z</time>
      </trkpt>
      <trkpt lat="45.71621" lon="3.06965">
        <ele>630.013</ele>
        <time>2021-07-02T07:59:47Z</time>
      </trkpt>
      <trkpt lat="45.71571" lon="3.06978">
        <ele>632.293</ele>
        <time>2021-07-02T08:00:07Z</time>
      </trkpt>
      <trkpt lat="45.71517" lon="3.06995">
        <ele>634.986</ele>
        <time>2021-07-02T08:00:27Z</time>
      </trkpt>
      <trkpt lat="45.71464" lon="3.07011">
        <ele>636.108</ele>
        <time>2021-07-02T08:00:47Z</time>
      </trkpt>
      <trkpt lat="45.71411" lon="3.0703">
        <ele>638.217</ele>
        <time>2021-07-02T08:01:07Z</time>
      </trkpt>
      <trkpt lat="45.71368" lon="3.0707">
        <ele>640.86</ele>
        <time>2021-07-02T08:01:27Z</time>
      </trkpt>
      <trkpt lat="45.71339" lon="3.07139">
        <ele>642.489</ele>
        <time>2021-07-02T08:01:47Z</time>
      </trkpt>
      <trkpt lat="45.71313" lon="3.07206">
        <ele>644.123</ele>
        <time>2021-07-02T08:02:07Z</time>
      </trkpt>
      <trkpt lat="45.71288" lon="3.07276">
        <ele>646.126</ele>
        <time>2021-07-02T08:02:27Z</time>
      </trkpt>
      <trkpt lat="45.7126" lon="3.07346">
        <ele>646.941</ele>
        <time>2021-07-02T08:02:47Z</time>
      </trkpt>
      <trkpt lat="45.71231" lon="3.07414">
        <ele>648.249</ele>
        <time>2021-07-02T08:03:07Z</time>
      </trkpt>
      <trkpt lat="45.71187" lon="3.07459">
        <ele>651.231</ele>
        <time>2021-07-02T08:03:27Z</time>
      </trkpt>
      <trkpt lat="45.71134" lon="3.0746">
        <ele>655.642</ele>
        <time>2021-07-02T08:03:47Z</time>
      </trkpt>
      <trkpt lat="45.7108" lon="3.07421">
        <ele>661.034</ele>
        <time>2021-07-02T08:04:07Z</time>
      </trkpt>
      <trkpt lat="45.7106" lon="3.07349">
        <ele>665.084</ele>
        <time>2021-07-02T08:04:27Z</time>
      </trkpt>
      <trkpt lat="45.71053" lon="3.07277">
        <ele>667.872</ele>
        <time>2021-07-02T08:04:47Z</time>
      </trkpt>
      <trkpt lat="45.71076" lon="3.07203">
        <ele>672.443</ele>
        <time>2021-07-02T08:05:07Z</time>
      </trkpt>
      <trkpt lat="45.7107" lon="3.07135">
        <ele>681.202</ele>
        <time>2021-07-02T08:05:27Z</time>
      </trkpt>
      <trkpt lat="45.71065" lon="3.07059">
        <ele>677.286</ele>
        <time>2021-07-02T08:05:47Z</time>
      </trkpt>
      <trkpt lat="45.71116" lon="3.06944">
        <ele>669.98</ele>
        <time>2021-07-02T08:06:07Z</time>
      </trkpt>
      <trkpt lat="45.71157" lon="3.06919">
        <ele>663.246</ele>
        <time>2021-07-02T08:06:27Z</time>
      </trkpt>
      <trkpt lat="45.71207" lon="3.06933">
        <ele>666.865</ele>
        <time>2021-07-02T08:06:47Z</time>
      </trkpt>
      <trkpt lat="45.71271" lon="3.06896">
        <ele>653.66</ele>
        <time>2021-07-02T08:07:07Z</time>
      </trkpt>
      <trkpt lat="45.71361" lon="3.06873">
        <ele>642.689</ele>
        <time>2021-07-02T08:07:27Z</time>
      </trkpt>
      <trkpt lat="45.71459" lon="3.06901">
        <ele>632.837</ele>
        <time>2021-07-02T08:07:47Z</time>
      </trkpt>
      <trkpt lat="45.71572" lon="3.06923">
        <ele>622.264</ele>
        <time>2021-07-02T08:08:07Z</time>
      </trkpt>
      <trkpt lat="45.71687" lon="3.06928">
        <ele>613.695</ele>
        <time>2021-07-02T08:08:27Z</time>
      </trkpt>
      <trkpt lat="45.71786" lon="3.06915">
        <ele>604.448</ele>
        <time>2021-07-02T08:08:47Z</time>
      </trkpt>
      <trkpt lat="45.71845" lon="3.06828">
        <ele>603.917</ele>
        <time>2021-07-02T08:09:07Z</time>
      </trkpt>
      <trkpt lat="45.71958" lon="3.06789">
        <ele>596.491</ele>
        <time>2021-07-02T08:09:27Z</time>
      </trkpt>
      <trkpt lat="45.72014" lon="3.06884">
        <ele>594.91</ele>
        <time>2021-07-02T08:09:47Z</time>
      </trkpt>
      <trkpt lat="45.71967" lon="3.07056">
        <ele>591.894</ele>
        <time>2021-07-02T08:10:07Z</time>
      </trkpt>
      <trkpt lat="45.71926" lon="3.07236">
        <ele>585.103</ele>
        <time>2021-07-02T08:10:27Z</time>
      </trkpt>
      <trkpt lat="45.71922" lon="3.07416">
        <ele>575.971</ele>
        <time>2021-07-02T08:10:47Z</time>
      </trkpt>
      <trkpt lat="45.72021" lon="3.07531">
        <ele>565.868</ele>
        <time>2021-07-02T08:11:07Z</time>
      </trkpt>
      <trkpt lat="45.72097" lon="3.07682">
        <ele>558.287</ele>
        <time>2021-07-02T08:11:27Z</time>
      </trkpt>
      <trkpt lat="45.72153" lon="3.0783">
        <ele>550.107</ele>
        <time>2021-07-02T08:11:47Z</time>
      </trkpt>
      <trkpt lat="45.72218" lon="3.07975">
        <ele>543.255</ele>
        <time>2021-07-02T08:12:07Z</time>
      </trkpt>
      <trkpt lat="45.72303" lon="3.08058">
        <ele>538.013</ele>
        <time>2021-07-02T08:12:27Z</time>
      </trkpt>
      <trkpt lat="45.72322" lon="3.08204">
        <ele>535.65</ele>
        <time>2021-07-02T08:12:47Z</time>
      </trkpt>
      <trkpt lat="45.72371" lon="3.08344">
        <ele>533.161</ele>
        <time>2021-07-02T08:13:07Z</time>
      </trkpt>
      <trkpt lat="45.72459" lon="3.0849">
        <ele>527.929</ele>
        <time>2021-07-02T08:13:27Z</time>
      </trkpt>
      <trkpt lat="45.72519" lon="3.08665">
        <ele>512.328</ele>
        <time>2021-07-02T08:13:47Z</time>
      </trkpt>
      <trkpt lat="45.72542" lon="3.08846">
        <ele>506.103</ele>
        <time>2021-07-02T08:14:07Z</time>
      </trkpt>
      <trkpt lat="45.72557" lon="3.08996">
        <ele>500.643</ele>
        <time>2021-07-02T08:14:27Z</time>
      </trkpt>
      <trkpt lat="45.72624" lon="3.09094">
        <ele>494.96</ele>
        <time>2021-07-02T08:14:47Z</time>
      </trkpt>
      <trkpt lat="45.7273" lon="3.09167">
        <ele>491.696</ele>
        <time>2021-07-02T08:15:07Z</time>
      </trkpt>
      <trkpt lat="45.72822" lon="3.0928">
        <ele>484.933</ele>
        <time>2021-07-02T08:15:27Z</time>
      </trkpt>
      <trkpt lat="45.72899" lon="3.09434">
        <ele>475.112</ele>
        <time>2021-07-02T08:15:47Z</time>
      </trkpt>
      <trkpt lat="45.72979" lon="3.09574">
        <ele>470.16</ele>
        <time>2021-07-02T08:16:07Z</time>
      </trkpt>
      <trkpt lat="45.7309" lon="3.09662">
        <ele>462.784</ele>
        <time>2021-07-02T08:16:27Z</time>
      </trkpt>
      <trkpt lat="45.73212" lon="3.09756">
        <ele>449.048</ele>
        <time>2021-07-02T08:16:47Z</time>
      </trkpt>
      <trkpt lat="45.73316" lon="3.09824">
        <ele>440.598</ele>
        <time>2021-07-02T08:17:07Z</time>
      </trkpt>
      <trkpt lat="45.73317" lon="3.09834">
        <ele>440.382</ele>
        <time>2021-07-02T08:17:27Z</time>
      </trkpt>
      <trkpt lat="45.73317" lon="3.09834">
        <ele>440.675</ele>
        <time>2021-07-02T08:17:47Z</time>
      </trkpt>
      <trkpt lat="45.73317" lon="3.09834">
        <ele>440.735</ele>
        <time>2021-07-02T08:18:07Z</time>
      </trkpt>
      <trkpt lat="45.73331" lon="3.09844">
        <ele>440.466</ele>
        <time>2021-07-02T08:18:27Z</time>
      </trkpt>
      <trkpt lat="45.73361" lon="3.09829">
        <ele>441.261</ele>
        <time>2021-07-02T08:18:47Z</time>
      </trkpt>
      <trkpt lat="45.73454" lon="3.09865">
        <ele>436.491</ele>
        <time>2021-07-02T08:19:07Z</time>
      </trkpt>
      <trkpt lat="45.73538" lon="3.09958">
        <ele>434.719</ele>
        <time>2021-07-02T08:19:27Z</time>
      </trkpt>
      <trkpt lat="45.73617" lon="3.10125">
        <ele>424.766</ele>
        <time>2021-07-02T08:19:47Z</time>
      </trkpt>
      <trkpt lat="45.73646" lon="3.10216">
        <ele>422.925</ele>
        <time>2021-07-02T08:20:07Z</time>
      </trkpt>
      <trkpt lat="45.73739" lon="3.10361">
        <ele>415.177</ele>
        <time>2021-07-02T08:20:27Z</time>
      </trkpt>
      <trkpt lat="45.73827" lon="3.10521">
        <ele>410.872</ele>
        <time>2021-07-02T08:20:47Z</time>
      </trkpt>
      <trkpt lat="45.73939" lon="3.10623">
        <ele>408.272</ele>
        <time>2021-07-02T08:21:07Z</time>
      </trkpt>
      <trkpt lat="45.74073" lon="3.10677">
        <ele>403.806</ele>
        <time>2021-07-02T08:21:27Z</time>
      </trkpt>
      <trkpt lat="45.74205" lon="3.10678">
        <ele>403.346</ele>
        <time>2021-07-02T08:21:47Z</time>
      </trkpt>
      <trkpt lat="45.7432" lon="3.10715">
        <ele>401.332</ele>
        <time>2021-07-02T08:22:07Z</time>
      </trkpt>
      <trkpt lat="45.74439" lon="3.1082">
        <ele>395.633</ele>
        <time>2021-07-02T08:22:27Z</time>
      </trkpt>
      <trkpt lat="45.74572" lon="3.10892">
        <ele>391.78</ele>
        <time>2021-07-02T08:22:47Z</time>
      </trkpt>
      <trkpt lat="45.74676" lon="3.10917">
        <ele>387.88</ele>
        <time>2021-07-02T08:23:07Z</time>
      </trkpt>
      <trkpt lat="45.74766" lon="3.10844">
        <ele>390.986</ele>
        <time>2021-07-02T08:23:27Z</time>
      </trkpt>
      <trkpt lat="45.74869" lon="3.1076">
        <ele>380.96</ele>
        <time>2021-07-02T08:23:47Z</time>
      </trkpt>
      <trkpt lat="45.74953" lon="3.10695">
        <ele>383.535</ele>
        <time>2021-07-02T08:24:07Z</time>
      </trkpt>
      <trkpt lat="45.75033" lon="3.10656">
        <ele>383.468</ele>
        <time>2021-07-02T08:24:27Z</time>
      </trkpt>
      <trkpt lat="45.7509" lon="3.10753">
        <ele>374.165</ele>
        <time>2021-07-02T08:24:47Z</time>
      </trkpt>
      <trkpt lat="45.75153" lon="3.10871">
        <ele>372.252</ele>
        <time>2021-07-02T08:25:07Z</time>
      </trkpt>
      <trkpt lat="45.75199" lon="3.10842">
        <ele>376.922</ele>
        <time>2021-07-02T08:25:27Z</time>
      </trkpt>
      <trkpt lat="45.75244" lon="3.10774">
        <ele>384.581</ele>
        <time>2021-07-02T08:25:47Z</time>
      </trkpt>
      <trkpt lat="45.75285" lon="3.1071">
        <ele>391.38</ele>
        <time>2021-07-02T08:26:07Z</time>
      </trkpt>
      <trkpt lat="45.75325" lon="3.10646">
        <ele>397.884</ele>
        <time>2021-07-02T08:26:27Z</time>
      </trkpt>
      <trkpt lat="45.75345" lon="3.1057">
        <ele>404.197</ele>
        <time>2021-07-02T08:26:47Z</time>
      </trkpt>
      <trkpt lat="45.75368" lon="3.10496">
        <ele>407.704</ele>
        <time>2021-07-02T08:27:07Z</time>
      </trkpt>
      <trkpt lat="45.75409" lon="3.10463">
        <ele>409.724</ele>
        <time>2021-07-02T08:27:27Z</time>
      </trkpt>
      <trkpt lat="45.75462" lon="3.1045">
        <ele>410.942</ele>
        <time>2021-07-02T08:27:47Z</time>
      </trkpt>
      <trkpt lat="45.75517" lon="3.10422">
        <ele>413.456</ele>
        <time>2021-07-02T08:28:07Z</time>
      </trkpt>
      <trkpt lat="45.7558" lon="3.10391">
        <ele>413.109</ele>
        <time>2021-07-02T08:28:27Z</time>
      </trkpt>
      <trkpt lat="45.75615" lon="3.10495">
        <ele>407.391</ele>
        <time>2021-07-02T08:28:47Z</time>
      </trkpt>
      <trkpt lat="45.75645" lon="3.10599">
        <ele>404.642</ele>
        <time>2021-07-02T08:29:07Z</time>
      </trkpt>
      <trkpt lat="45.75669" lon="3.10692">
        <ele>402.066</ele>
        <time>2021-07-02T08:29:27Z</time>
      </trkpt>
      <trkpt lat="45.75697" lon="3.10682">
        <ele>405.569</ele>
        <time>2021-07-02T08:29:47Z</time>
      </trkpt>
      <trkpt lat="45.75759" lon="3.10617">
        <ele>405.845</ele>
        <time>2021-07-02T08:30:07Z</time>
      </trkpt>
      <trkpt lat="45.75836" lon="3.1055">
        <ele>409.313</ele>
        <time>2021-07-02T08:30:27Z</time>
      </trkpt>
      <trkpt lat="45.75924" lon="3.10523">
        <ele>407.691</ele>
        <time>2021-07-02T08:30:47Z</time>
      </trkpt>
      <trkpt lat="45.76009" lon="3.10539">
        <ele>403.986</ele>
        <time>2021-07-02T08:31:07Z</time>
      </trkpt>
      <trkpt lat="45.76128" lon="3.10502">
        <ele>401.765</ele>
        <time>2021-07-02T08:31:27Z</time>
      </trkpt>
      <trkpt lat="45.76232" lon="3.10493">
        <ele>402.917</ele>
        <time>2021-07-02T08:31:47Z</time>
      </trkpt>
      <trkpt lat="45.76325" lon="3.10497">
        <ele>401.805</ele>
        <time>2021-07-02T08:32:07Z</time>
      </trkpt>
      <trkpt lat="45.76423" lon="3.10509">
        <ele>399.814</ele>
        <time>2021-07-02T08:32:27Z</time>
      </trkpt>
      <trkpt lat="45.76515" lon="3.10477">
        <ele>396.343</ele>
        <time>2021-07-02T08:32:47Z</time>
      </trkpt>
      <trkpt lat="45.76547" lon="3.1047">
        <ele>393.237</ele>
        <time>2021-07-02T08:33:07Z</time>
      </trkpt>
      <trkpt lat="45.76616" lon="3.1057">
        <ele>386.06</ele>
        <time>2021-07-02T08:33:27Z</time>
      </trkpt>
      <trkpt lat="45.76664" lon="3.10685">
        <ele>383.224</ele>
        <time>2021-07-02T08:33:47Z</time>
      </trkpt>
      <trkpt lat="45.7667" lon="3.10697">
        <ele>382.066</ele>
        <time>2021-07-02T08:34:07Z</time>
      </trkpt>
      <trkpt lat="45.7663" lon="3.10798">
        <ele>384.252</ele>
        <time>2021-07-02T08:34:27Z</time>
      </trkpt>
      <trkpt lat="45.76675" lon="3.10897">
        <ele>378.542</ele>
        <time>2021-07-02T08:34:47Z</time>
      </trkpt>
      <trkpt lat="45.76722" lon="3.10999">
        <ele>374.169</ele>
        <time>2021-07-02T08:35:07Z</time>
      </trkpt>
      <trkpt lat="45.76665" lon="3.11083">
        <ele>382.184</ele>
        <time>2021-07-02T08:35:27Z</time>
      </trkpt>
      <trkpt lat="45.767" lon="3.11173">
        <ele>378.128</ele>
        <time>2021-07-02T08:35:47Z</time>
      </trkpt>
      <trkpt lat="45.76719" lon="3.11312">
        <ele>379.669</ele>
        <time>2021-07-02T08:36:07Z</time>
      </trkpt>
      <trkpt lat="45.76718" lon="3.11407">
        <ele>385.312</ele>
        <time>2021-07-02T08:36:27Z</time>
      </trkpt>
      <trkpt lat="45.76716" lon="3.11509">
        <ele>383.378</ele>
        <time>2021-07-02T08:36:47Z</time>
      </trkpt>
    </trkseg>
  </trk>
  <trk>
    <name><![CDATA[ACTIVE LOG104159]]></name>
    <trkseg>
      <trkpt lat="45.76761" lon="3.11462">
        <ele>392.655</ele>
        <time>2021-07-02T08:41:59Z</time>
      </trkpt>
    </trkseg>
  </trk>
</gpx>